createdAt,value
2022-10-18T00:00:46.274Z,100082.88
2022-10-18T00:03:14.248Z,100095.13
2022-10-18T00:05:41.703Z,100040.56
2022-10-18T00:08:08.806Z,100058.22
2022-10-18T00:10:35.940Z,100050.25
2022-10-18T00:13:03.036Z,100075.75
2022-10-18T00:15:30.234Z,100063.50
2022-10-18T00:17:57.804Z,100045.97
2022-10-18T00:20:25.946Z,100047.66
2022-10-18T00:22:52.867Z,100044.97
2022-10-18T00:25:20.179Z,100023.91
2022-10-18T00:27:47.115Z,100008.78
2022-10-18T00:30:14.159Z,100017.47
2022-10-18T00:32:42.637Z,100042.31
2022-10-18T00:35:09.999Z,100045.75
2022-10-18T00:37:37.483Z,99986.78
2022-10-18T00:40:05.974Z,100010.53
2022-10-18T00:42:35.320Z,100037.78
2022-10-18T00:45:19.403Z,100020.25
2022-10-18T00:47:53.537Z,100019.25
2022-10-18T00:50:22.257Z,100032.44
2022-10-18T00:52:54.340Z,99996.41
2022-10-18T00:55:21.799Z,100019.34
2022-10-18T00:57:50.140Z,100006.06
2022-10-18T01:00:18.019Z,100008.78
2022-10-18T01:02:47.767Z,99973.63
2022-10-18T01:05:18.666Z,100007.00
2022-10-18T01:07:54.768Z,100001.78
2022-10-18T01:10:44.609Z,99985.09
2022-10-18T01:13:25.780Z,99992.94
2022-10-18T01:16:10.897Z,99964.63
2022-10-18T01:18:44.489Z,99982.16
2022-10-18T01:21:39.122Z,99943.19
2022-10-18T01:24:45.349Z,99957.34
2022-10-18T01:27:21.787Z,99979.59
2022-10-18T01:30:08.191Z,99950.38
2022-10-18T01:32:46.517Z,99987.38
2022-10-18T01:35:22.614Z,99955.66
2022-10-18T01:37:52.754Z,99974.19
2022-10-18T01:40:22.467Z,99952.03
2022-10-18T01:42:50.529Z,99967.16
2022-10-18T01:45:19.390Z,99973.41
2022-10-18T01:47:48.418Z,99970.78
2022-10-18T01:50:15.672Z,99957.66
2022-10-18T01:52:52.513Z,99974.19
2022-10-18T01:55:25.688Z,99950.22
2022-10-18T01:58:10.743Z,99971.56
2022-10-18T02:00:42.511Z,99951.44
2022-10-18T02:03:22.845Z,99960.19
2022-10-18T02:06:21.576Z,99954.97
2022-10-18T02:08:59.037Z,99924.91
2022-10-18T02:11:29.812Z,99925.78
2022-10-18T02:14:04.726Z,99904.72
2022-10-18T02:16:45.506Z,99945.41
2022-10-18T02:19:26.198Z,99945.41
2022-10-18T02:21:55.163Z,99912.03
2022-10-18T02:24:26.579Z,99937.47
2022-10-18T02:26:53.636Z,99918.16
2022-10-18T02:29:20.724Z,99927.88
2022-10-18T02:31:51.373Z,99942.00
2022-10-18T02:34:27.270Z,99939.34
2022-10-18T02:36:58.181Z,99916.44
2022-10-18T02:39:36.308Z,99921.78
2022-10-18T02:42:08.744Z,99929.69
2022-10-18T02:44:36.332Z,99880.38
2022-10-18T02:47:05.854Z,99912.22
2022-10-18T02:49:33.448Z,99902.59
2022-10-18T02:52:00.644Z,99898.16
2022-10-18T02:54:27.589Z,99898.28
2022-10-18T02:56:55.023Z,99876.16
2022-10-18T02:59:22.047Z,99901.75
2022-10-18T03:01:49.100Z,99892.19
2022-10-18T03:04:17.268Z,99883.38
2022-10-18T03:06:44.525Z,99857.88
2022-10-18T03:09:12.065Z,99865.03
2022-10-18T03:11:39.462Z,99879.97
2022-10-18T03:14:06.594Z,99864.13
2022-10-18T03:16:34.356Z,99854.47
2022-10-18T03:19:01.813Z,99867.75
2022-10-18T03:21:28.908Z,99842.16
2022-10-18T03:23:56.291Z,99842.34
2022-10-18T03:26:23.297Z,99837.81
2022-10-18T03:28:50.808Z,99849.44
2022-10-18T03:31:18.470Z,99816.00
2022-10-18T03:33:46.823Z,99842.44
2022-10-18T03:36:15.185Z,99839.81
2022-10-18T03:38:42.402Z,99802.94
2022-10-18T03:41:10.642Z,99827.63
2022-10-18T03:43:37.760Z,99818.03
2022-10-18T03:46:05.066Z,99790.75
2022-10-18T03:48:32.472Z,99817.06
2022-10-18T03:50:59.733Z,99773.91
2022-10-18T03:53:26.711Z,99789.78
2022-10-18T03:55:54.857Z,99783.59
2022-10-18T03:58:22.642Z,99779.25
2022-10-18T04:00:54.248Z,99786.31
2022-10-18T04:03:22.958Z,99776.66
2022-10-18T04:05:50.793Z,99793.38
2022-10-18T04:08:18.720Z,99776.78
2022-10-18T04:10:46.337Z,99781.16
2022-10-18T04:13:13.737Z,99768.84
2022-10-18T04:15:40.829Z,99737.31
2022-10-18T04:18:07.821Z,99758.47
2022-10-18T04:20:34.827Z,99781.16
2022-10-18T04:23:02.161Z,99721.31
2022-10-18T04:25:29.564Z,99750.44
2022-10-18T04:27:56.948Z,99751.44
2022-10-18T04:30:24.110Z,99767.28
2022-10-18T04:32:51.648Z,99731.28
2022-10-18T04:35:19.890Z,99742.78
2022-10-18T04:37:47.188Z,99734.75
2022-10-18T04:40:43.222Z,99685.56
2022-10-18T04:43:10.188Z,99756.91
2022-10-18T04:45:38.754Z,99754.31
2022-10-18T04:48:09.299Z,99743.03
2022-10-18T04:50:36.353Z,99706.97
2022-10-18T04:53:13.839Z,99738.69
2022-10-18T04:55:44.164Z,99717.66
2022-10-18T04:58:11.089Z,99725.69
2022-10-18T05:00:40.074Z,99708.16
2022-10-18T05:03:08.071Z,99715.16
2022-10-18T05:05:49.860Z,99670.34
2022-10-18T05:08:23.263Z,99699.53
2022-10-18T05:10:50.450Z,99709.19
2022-10-18T05:13:17.620Z,99674.09
2022-10-18T05:15:46.742Z,99697.97
2022-10-18T05:18:13.779Z,99635.50
2022-10-18T05:20:41.218Z,99696.25
2022-10-18T05:23:10.971Z,99707.56
2022-10-18T05:25:39.686Z,99674.19
2022-10-18T05:28:15.704Z,99688.25
2022-10-18T05:30:53.794Z,99696.22
2022-10-18T05:33:20.842Z,99679.53
2022-10-18T05:35:48.238Z,99679.53
2022-10-18T05:38:15.539Z,99716.53
2022-10-18T05:40:42.634Z,99724.41
2022-10-18T05:43:10.055Z,99691.94
2022-10-18T05:45:36.954Z,99703.44
2022-10-18T05:48:05.568Z,99688.50
2022-10-18T05:50:36.630Z,99707.09
2022-10-18T05:53:12.161Z,99712.38
2022-10-18T05:55:40.130Z,99717.69
2022-10-18T05:58:07.328Z,99676.41
2022-10-18T06:00:34.360Z,99706.41
2022-10-18T06:03:01.556Z,99699.44
2022-10-18T06:05:28.643Z,99686.47
2022-10-18T06:07:57.133Z,99690.00
2022-10-18T06:10:24.229Z,99660.16
2022-10-18T06:12:52.165Z,99655.03
2022-10-18T06:15:19.329Z,99640.94
2022-10-18T06:17:46.615Z,99660.38
2022-10-18T06:20:13.668Z,99613.81
2022-10-18T06:22:41.466Z,99619.09
2022-10-18T06:25:08.916Z,99639.41
2022-10-18T06:27:35.835Z,99628.84
2022-10-18T06:30:02.809Z,99627.06
2022-10-18T06:32:30.738Z,99621.81
2022-10-18T06:34:57.693Z,99609.59
2022-10-18T06:37:24.764Z,99606.09
2022-10-18T06:39:51.788Z,99629.03
2022-10-18T06:42:21.896Z,99620.25
2022-10-18T06:44:50.223Z,99611.47
2022-10-18T06:47:17.618Z,99590.50
2022-10-18T06:49:44.690Z,99566.84
2022-10-18T06:52:11.985Z,99559.94
2022-10-18T06:54:39.191Z,99559.09
2022-10-18T06:57:06.180Z,99543.41
2022-10-18T06:59:34.266Z,99513.72
2022-10-18T07:02:01.639Z,99461.97
2022-10-18T07:04:30.508Z,99482.13
2022-10-18T07:06:57.869Z,99499.69
2022-10-18T07:09:25.098Z,99518.91
2022-10-18T07:11:53.123Z,99506.69
2022-10-18T07:14:20.223Z,99510.16
2022-10-18T07:16:47.741Z,99454.22
2022-10-18T07:19:15.369Z,99461.28
2022-10-18T07:21:43.058Z,99456.00
2022-10-18T07:24:11.276Z,99460.41
2022-10-18T07:26:38.919Z,99389.34
2022-10-18T07:29:09.909Z,99429.88
2022-10-18T07:31:41.416Z,99400.94
2022-10-18T07:34:12.875Z,99389.72
2022-10-18T07:36:40.489Z,99374.03
2022-10-18T07:39:07.988Z,99391.50
2022-10-18T07:41:35.780Z,99320.59
2022-10-18T07:44:04.679Z,99329.44
2022-10-18T07:46:32.319Z,99308.50
2022-10-18T07:48:59.710Z,99318.16
2022-10-18T07:51:27.915Z,99280.56
2022-10-18T07:53:55.082Z,99293.75
2022-10-18T07:56:22.807Z,99276.31
2022-10-18T07:58:52.770Z,99275.44
2022-10-18T08:01:21.653Z,99271.13
2022-10-18T08:03:49.152Z,99253.66
2022-10-18T08:06:18.706Z,99232.72
2022-10-18T08:08:46.237Z,99178.38
2022-10-18T08:11:21.748Z,99227.50
2022-10-18T08:13:49.801Z,99239.69
2022-10-18T08:16:24.086Z,99188.97
2022-10-18T08:18:51.593Z,99206.56
2022-10-18T08:21:20.099Z,99197.81
2022-10-18T08:23:49.077Z,99167.25
2022-10-18T08:26:21.565Z,99149.78
2022-10-18T08:29:03.645Z,99124.47
2022-10-18T08:31:36.894Z,99118.34
2022-10-18T08:34:04.496Z,99090.41
2022-10-18T08:36:32.188Z,99112.22
2022-10-18T08:38:59.176Z,99087.78
2022-10-18T08:41:29.298Z,99059.00
2022-10-18T08:44:17.921Z,99052.00
2022-10-18T08:46:48.549Z,99037.16
2022-10-18T08:49:29.907Z,99006.63
2022-10-18T08:51:58.307Z,98976.06
2022-10-18T08:54:49.665Z,98931.53
2022-10-18T08:57:18.471Z,98941.13
2022-10-18T08:59:45.461Z,98934.19
2022-10-18T09:02:12.438Z,98918.44
2022-10-18T09:05:03.969Z,98895.78
2022-10-18T09:07:34.009Z,98879.19
2022-10-18T09:10:14.534Z,98875.72
2022-10-18T09:13:05.903Z,98857.38
2022-10-18T09:15:55.640Z,98842.53
2022-10-18T09:18:35.166Z,98881.84
2022-10-18T09:21:17.468Z,98913.25
2022-10-18T09:23:49.187Z,98867.00
2022-10-18T09:26:34.418Z,98860.91
2022-10-18T09:29:33.793Z,98874.84
2022-10-18T09:32:27.086Z,98878.34
2022-10-18T09:35:01.173Z,98828.59
2022-10-18T09:37:34.540Z,98871.31
2022-10-18T09:40:16.588Z,98838.97
2022-10-18T09:43:00.759Z,98812.78
2022-10-18T09:45:32.217Z,98835.44
2022-10-18T09:48:26.912Z,98818.81
2022-10-18T09:51:17.976Z,98831.00
2022-10-18T09:54:09.982Z,98829.28
2022-10-18T09:56:42.712Z,98818.78
2022-10-18T09:59:42.607Z,98817.88
2022-10-18T10:02:17.867Z,98815.25
2022-10-18T10:04:45.338Z,98797.75
2022-10-18T10:07:18.450Z,98754.16
2022-10-18T10:09:57.188Z,98820.41
2022-10-18T10:12:33.309Z,98799.41
2022-10-18T10:15:15.467Z,98798.50
2022-10-18T10:17:43.275Z,98774.84
2022-10-18T10:20:23.374Z,98780.94
2022-10-18T10:22:52.187Z,98779.97
2022-10-18T10:25:21.221Z,98755.50
2022-10-18T10:27:48.354Z,98764.13
2022-10-18T10:30:24.342Z,98763.16
2022-10-18T10:32:53.121Z,98743.03
2022-10-18T10:35:52.681Z,98761.25
2022-10-18T10:38:25.166Z,98756.81
2022-10-18T10:40:52.689Z,98754.16
2022-10-18T10:43:37.159Z,98755.84
2022-10-18T10:46:12.150Z,98748.78
2022-10-18T10:49:04.244Z,98714.72
2022-10-18T10:51:40.748Z,98731.13
2022-10-18T10:54:24.082Z,98712.75
2022-10-18T10:56:54.239Z,98717.88
2022-10-18T10:59:24.154Z,98693.47
2022-10-18T11:02:14.273Z,98734.34
2022-10-18T11:04:42.636Z,98714.19
2022-10-18T11:07:09.784Z,98730.63
2022-10-18T11:09:45.655Z,98712.13
2022-10-18T11:12:29.960Z,98719.97
2022-10-18T11:15:26.262Z,98706.72
2022-10-18T11:18:05.626Z,98696.03
2022-10-18T11:20:38.698Z,98678.44
2022-10-18T11:23:12.779Z,98658.41
2022-10-18T11:25:58.904Z,98697.53
2022-10-18T11:28:50.058Z,98698.22
2022-10-18T11:31:39.376Z,98713.09
2022-10-18T11:34:45.123Z,98710.38
2022-10-18T11:37:38.556Z,98704.13
2022-10-18T11:40:27.286Z,98697.91
2022-10-18T11:43:13.020Z,98702.19
2022-10-18T11:46:17.460Z,98702.09
2022-10-18T11:49:10.566Z,98703.72
2022-10-18T11:52:06.663Z,98682.66
2022-10-18T11:54:45.741Z,98700.84
2022-10-18T11:57:31.666Z,98713.94
2022-10-18T12:00:45.001Z,98663.06
2022-10-18T12:03:30.703Z,98701.31
2022-10-18T12:06:03.710Z,98701.31
2022-10-18T12:08:33.695Z,98695.97
2022-10-18T12:11:09.385Z,98674.94
2022-10-18T12:13:47.446Z,98691.50
2022-10-18T12:16:16.789Z,98689.66
2022-10-18T12:18:55.855Z,98681.72
2022-10-18T12:21:25.878Z,98664.22
2022-10-18T12:23:56.371Z,98697.25
2022-10-18T12:26:25.101Z,98685.88
2022-10-18T12:29:14.286Z,98687.44
2022-10-18T12:31:44.622Z,98683.88
2022-10-18T12:34:23.954Z,98694.22
2022-10-18T12:37:21.643Z,98696.84
2022-10-18T12:40:09.771Z,98681.78
2022-10-18T12:42:50.483Z,98694.84
2022-10-18T12:45:34.393Z,98676.47
2022-10-18T12:48:06.312Z,98692.91
2022-10-18T12:50:39.449Z,98690.22
2022-10-18T12:53:12.583Z,98678.81
2022-10-18T12:58:16.033Z,98677.78
2022-10-18T13:00:44.041Z,98674.19
2022-10-18T13:03:14.368Z,98672.41
2022-10-18T13:05:55.869Z,98685.56
2022-10-18T13:08:30.634Z,98670.47
2022-10-18T13:11:12.508Z,98683.53
2022-10-18T13:14:12.479Z,98680.16
2022-10-18T13:17:08.773Z,98694.84
2022-10-18T13:20:07.793Z,98691.22
2022-10-18T13:22:50.507Z,98677.00
2022-10-18T13:25:17.419Z,98683.09
2022-10-18T13:28:16.786Z,98681.31
2022-10-18T13:31:10.123Z,98674.59
2022-10-18T13:33:40.248Z,98685.59
2022-10-18T13:36:31.364Z,98680.22
2022-10-18T13:39:05.412Z,98682.88
2022-10-18T13:41:56.696Z,98666.13
2022-10-18T13:44:37.586Z,98649.69
2022-10-18T13:47:04.746Z,98674.75
2022-10-18T13:49:34.795Z,98672.13
2022-10-18T13:52:09.350Z,98680.78
2022-10-18T13:54:54.936Z,98703.47
2022-10-18T13:57:39.118Z,98696.41
2022-10-18T14:00:14.641Z,98693.03
2022-10-18T14:03:22.864Z,98693.16
2022-10-18T14:06:00.190Z,98714.66
2022-10-18T14:08:42.802Z,98705.03
2022-10-18T14:11:27.717Z,98712.88
2022-10-18T14:14:17.025Z,98714.72
2022-10-18T14:16:52.290Z,98720.00
2022-10-18T14:19:29.352Z,98740.22
2022-10-18T14:22:22.254Z,98730.63
2022-10-18T14:24:56.237Z,98715.91
2022-10-18T14:27:50.875Z,98741.59
2022-10-18T14:30:21.276Z,98729.13
2022-10-18T14:32:51.486Z,98737.97
2022-10-18T14:35:32.641Z,98733.91
2022-10-18T14:38:02.538Z,98732.19
2022-10-18T14:40:38.109Z,98744.41
2022-10-18T14:43:13.839Z,98714.88
2022-10-18T14:45:42.714Z,98725.34
2022-10-18T14:48:22.678Z,98713.34
2022-10-18T14:51:00.604Z,98729.19
2022-10-18T14:53:36.008Z,98740.50
2022-10-18T14:56:04.577Z,98757.41
2022-10-18T14:58:32.823Z,98745.28
2022-10-18T15:01:00.133Z,98737.69
2022-10-18T15:03:28.734Z,98754.31
2022-10-18T15:06:02.351Z,98761.41
2022-10-18T15:08:37.897Z,98778.91
2022-10-18T15:11:09.368Z,98761.50
2022-10-18T15:13:49.317Z,98787.66
2022-10-18T15:16:19.314Z,98788.63
2022-10-18T15:19:14.184Z,98794.84
2022-10-18T15:22:07.966Z,98789.72
2022-10-18T15:24:41.750Z,98803.63
2022-10-18T15:27:17.845Z,98807.22
2022-10-18T15:29:45.076Z,98809.88
2022-10-18T15:32:22.123Z,98798.69
2022-10-18T15:34:49.785Z,98829.28
2022-10-18T15:37:40.040Z,98833.72
2022-10-18T15:40:29.945Z,98811.09
2022-10-18T15:43:00.136Z,98846.03
2022-10-18T15:45:28.103Z,98844.25
2022-10-18T15:48:10.989Z,98850.47
2022-10-18T15:50:47.911Z,98815.53
2022-10-18T15:53:31.714Z,98839.22
2022-10-18T15:56:01.805Z,98854.16
2022-10-18T15:58:42.308Z,98841.94
2022-10-18T16:01:21.277Z,98851.72
2022-10-18T16:03:49.788Z,98836.88
2022-10-18T16:06:18.402Z,98852.75
2022-10-18T16:08:48.867Z,98828.66
2022-10-18T16:11:25.042Z,98861.59
2022-10-18T16:13:55.273Z,98869.53
2022-10-18T16:16:27.764Z,98867.91
2022-10-18T16:18:55.912Z,98859.25
2022-10-18T16:21:31.131Z,98887.31
2022-10-18T16:23:58.696Z,98880.31
2022-10-18T16:26:27.432Z,98883.88
2022-10-18T16:28:56.029Z,98863.00
2022-10-18T16:31:32.904Z,98867.31
2022-10-18T16:34:00.898Z,98870.88
2022-10-18T16:36:31.288Z,98896.16
2022-10-18T16:39:01.007Z,98894.53
2022-10-18T16:41:28.596Z,98891.03
2022-10-18T16:43:55.746Z,98894.56
2022-10-18T16:46:28.655Z,98907.66
2022-10-18T16:48:56.639Z,98906.75
2022-10-18T16:51:24.645Z,98920.84
2022-10-18T16:53:53.550Z,98872.00
2022-10-18T16:56:24.415Z,98916.50
2022-10-18T16:58:51.998Z,98912.22
2022-10-18T17:01:21.717Z,98912.31
2022-10-18T17:03:52.209Z,98899.81
2022-10-18T17:06:20.797Z,98917.47
2022-10-18T17:08:48.958Z,98888.69
2022-10-18T17:11:17.001Z,98937.59
2022-10-18T17:14:05.443Z,98937.63
2022-10-18T17:16:35.142Z,98935.09
2022-10-18T17:19:05.030Z,98934.34
2022-10-18T17:21:33.640Z,98945.75
2022-10-18T17:24:05.891Z,98910.78
2022-10-18T17:26:34.471Z,98919.44
2022-10-18T17:29:06.275Z,98942.22
2022-10-18T17:31:35.899Z,98930.06
2022-10-18T17:34:04.474Z,98949.31
2022-10-18T17:36:33.227Z,98949.56
2022-10-18T17:39:00.754Z,98960.13
2022-10-18T17:41:28.397Z,98954.94
2022-10-18T17:43:59.624Z,98965.53
2022-10-18T17:46:27.087Z,98961.25
2022-10-18T17:48:54.406Z,98952.63
2022-10-18T17:51:22.386Z,98911.72
2022-10-18T17:53:50.296Z,98959.78
2022-10-18T17:56:17.462Z,98920.63
2022-10-18T17:58:47.231Z,98958.22
2022-10-18T18:01:17.259Z,98926.78
2022-10-18T18:03:48.000Z,98939.00
2022-10-18T18:06:21.414Z,98964.44
2022-10-18T18:08:51.595Z,98976.75
2022-10-18T18:11:21.903Z,98978.56
2022-10-18T18:13:48.932Z,98973.34
2022-10-18T18:16:20.835Z,98934.06
2022-10-18T18:18:51.507Z,98935.78
2022-10-18T18:21:20.949Z,98924.47
2022-10-18T18:23:51.360Z,98983.91
2022-10-18T18:26:32.626Z,98988.31
2022-10-18T18:31:34.497Z,98967.44
2022-10-18T18:34:09.391Z,98970.09
2022-10-18T18:36:38.451Z,98948.22
2022-10-18T18:39:06.275Z,98959.63
2022-10-18T18:41:35.257Z,98964.09
2022-10-18T18:44:05.165Z,98970.25
2022-10-18T18:46:38.880Z,98958.91
2022-10-18T18:49:08.690Z,98965.91
2022-10-18T18:51:38.297Z,98948.47
2022-10-18T18:54:08.600Z,98942.38
2022-10-18T18:56:36.796Z,98961.63
2022-10-18T18:59:04.876Z,98958.09
2022-10-18T19:01:38.678Z,98952.97
2022-10-18T19:04:09.302Z,98970.47
2022-10-18T19:06:43.535Z,98966.06
2022-10-18T19:09:24.096Z,98969.59
2022-10-18T19:11:54.452Z,98944.28
2022-10-18T19:14:25.777Z,98961.78
2022-10-18T19:16:55.258Z,98951.34
2022-10-18T19:19:24.773Z,98963.56
2022-10-18T19:21:56.180Z,98967.13
2022-10-18T19:24:23.916Z,98987.31
2022-10-18T19:26:53.560Z,98948.00
2022-10-18T19:29:32.233Z,98995.19
2022-10-18T19:32:02.085Z,98991.66
2022-10-18T19:34:30.737Z,98986.41
2022-10-18T19:36:58.399Z,98987.25
2022-10-18T19:39:30.728Z,98998.66
2022-10-18T19:41:59.972Z,98990.78
2022-10-18T19:44:31.088Z,98978.53
2022-10-18T19:46:58.539Z,98977.63
2022-10-18T19:49:26.393Z,98989.84
2022-10-18T19:51:54.073Z,98954.84
2022-10-18T19:54:21.747Z,98974.94
2022-10-18T19:56:48.964Z,98976.66
2022-10-18T19:59:17.187Z,98983.63
2022-10-18T20:01:45.355Z,98970.50
2022-10-18T20:04:13.242Z,98981.84
2022-10-18T20:06:40.959Z,98975.69
2022-10-18T20:09:11.538Z,98977.47
2022-10-18T20:11:40.858Z,98962.63
2022-10-18T20:14:10.086Z,98973.97
2022-10-18T20:16:37.149Z,98973.97
2022-10-18T20:19:07.401Z,98979.22
2022-10-18T20:21:36.071Z,98961.69
2022-10-18T20:24:07.382Z,98940.72
2022-10-18T20:26:36.184Z,98955.59
2022-10-18T20:29:04.688Z,98925.97
2022-10-18T20:31:35.725Z,98943.38
2022-10-18T20:34:05.694Z,98958.28
2022-10-18T20:36:33.979Z,98954.78
2022-10-18T20:39:01.486Z,98957.44
2022-10-18T20:41:30.975Z,98966.16
2022-10-18T20:44:01.082Z,98946.06
2022-10-18T20:46:31.548Z,98971.34
2022-10-18T20:48:58.915Z,98942.50
2022-10-18T20:51:26.005Z,98964.31
2022-10-18T20:53:53.783Z,98961.69
2022-10-18T20:56:23.116Z,98956.47
2022-10-18T20:58:52.038Z,98946.81
2022-10-18T21:01:22.090Z,98941.53
2022-10-18T21:03:51.785Z,98956.44
2022-10-18T21:06:27.980Z,98952.94
2022-10-18T21:09:00.448Z,98954.69
2022-10-18T21:11:28.897Z,98942.44
2022-10-18T21:14:04.623Z,98944.19
2022-10-18T21:16:32.845Z,98938.06
2022-10-18T21:19:27.323Z,98947.69
2022-10-18T21:21:56.817Z,98946.84
2022-10-18T21:24:27.768Z,98959.97
2022-10-18T21:26:54.927Z,98971.38
2022-10-18T21:29:24.644Z,98949.56
2022-10-18T21:31:59.385Z,98965.25
2022-10-18T21:34:26.734Z,98965.28
2022-10-18T21:36:54.189Z,98946.03
2022-10-18T21:41:55.034Z,98925.97
2022-10-18T21:44:22.237Z,98915.47
2022-10-18T21:46:49.922Z,98932.13
2022-10-18T21:49:17.441Z,98960.09
2022-10-18T21:51:45.027Z,98965.41
2022-10-18T21:54:14.012Z,98961.03
2022-10-18T21:56:41.216Z,98961.06
2022-10-18T21:59:08.261Z,98963.69
2022-10-18T22:01:37.909Z,98958.47
2022-10-18T22:04:16.308Z,98939.22
2022-10-18T22:06:43.714Z,98940.09
2022-10-18T22:09:10.828Z,98933.09
2022-10-18T22:11:43.032Z,98924.34
2022-10-18T22:14:10.597Z,98921.72
2022-10-18T22:16:37.690Z,98899.03
2022-10-18T22:19:06.164Z,98921.72
2022-10-18T22:21:33.217Z,98915.63
2022-10-18T22:24:01.073Z,98923.50
2022-10-18T22:26:30.981Z,98904.25
2022-10-18T22:29:03.065Z,98904.28
2022-10-18T22:31:32.501Z,98909.50
2022-10-18T22:34:02.031Z,98908.59
2022-10-18T22:36:29.793Z,98897.22
2022-10-18T22:38:57.002Z,98881.50
2022-10-18T22:41:23.964Z,98892.00
2022-10-18T22:43:52.350Z,98865.81
2022-10-18T22:46:20.079Z,98895.53
2022-10-18T22:48:47.509Z,98906.03
2022-10-18T22:51:14.957Z,98901.66
2022-10-18T22:53:42.261Z,98886.81
2022-10-18T22:56:13.438Z,98906.03
2022-10-18T22:58:40.602Z,98906.06
2022-10-18T23:01:10.090Z,98876.41
2022-10-18T23:03:38.173Z,98888.59
2022-10-18T23:06:17.736Z,98883.28
2022-10-18T23:08:44.947Z,98881.56
2022-10-18T23:11:11.933Z,98850.13
2022-10-18T23:13:39.664Z,98878.09
2022-10-18T23:16:07.330Z,98857.09
2022-10-18T23:18:34.392Z,98851.84
2022-10-18T23:21:07.227Z,98855.31
2022-10-18T23:23:35.768Z,98855.31
2022-10-18T23:26:07.870Z,98855.31
2022-10-18T23:28:40.096Z,98841.31
2022-10-18T23:31:14.748Z,98836.94
2022-10-18T23:33:41.843Z,98818.59
2022-10-18T23:36:09.256Z,98822.94
2022-10-18T23:38:38.118Z,98802.84
2022-10-18T23:41:09.799Z,98812.44
2022-10-18T23:43:36.778Z,98815.00
2022-10-18T23:46:04.509Z,98808.03
2022-10-18T23:48:31.742Z,98817.63
2022-10-18T23:50:58.811Z,98802.75
2022-10-18T23:53:26.081Z,98783.56
2022-10-18T23:56:01.956Z,98764.38
2022-10-18T23:58:31.469Z,98802.75
